Etusivu
METAR-TAF:

METAR-TAF

Lentoasemat :

Orange, Ranska

Leveyspiiri: 44-08N, Pituuspiiri: 004-50E, korkeus merenpinnasta: 60 m

Tämänhetkinen sää

Tämä raportti tehtiin 20 minuuttia sitten, kello 00.00 UTC
Tuuli 3 kn idästä/kaakosta
Lämpötila 14°C
Kosteus 82%
Ilmanpaine 1018 hPa
Näkyvyys 10 km tai enemmän
ei pilviä alle 1500 m:ssä eikä cumulonimbus-pilviä

METAR: LFMO 260000Z AUTO 11003KT CAVOK 14/11 Q1018 NOSIG

Aika: 02:20 (00:20 UTC)

Sääennuste

Tämä raportti tehtiin 4 tuntia ja 20 minuuttia sitten, kello 20.00 UTC
Ennuste voimassa 25. päivästä klo 21 UTC - 26. päivään klo 21 UTC
Tuuli 3 kn eri suunnista
Näkyvyys 10 km tai enemmän
ei pilviä alle 1500 m:ssä eikä cumulonimbus-pilviä
Tulossa
26. päivästä klo 14 UTC - 26. päivään klo 15 UTC
Tuuli 12 kn etelästä/lounaasta
Tulossa
26. päivästä klo 20 UTC - 26. päivään klo 21 UTC
Tuuli 4 kn etelästä/kaakosta

TAF: LFMO 252000Z 2521/2621 VRB03KT CAVOK TX28/2614Z TN12/2605Z BECMG 2614/2615 21012KT BECMG 2620/2621 16004KT

Säähavainnot ja -ennusteet yli 4000 lentoasemalta (METAR- ja TAF-raportit).

Käytössä olevat sääasemat on merkitty karttaan keltaisilla ja punaisilla pisteillä.

Aseta hiiri pisteen päälle nähdäksesi sääaseman nimen.

Klikkaa sitten nähdäksesi säähavainnot ja -ennusteet.

Kartan vaihtaminen: klikkaa mustalla rastilla varustettuja vihreitä pisteitä, niin voit zoomata sisään; viivalla varustettua vihreää pistettä, niin voit zoomata ulos tai vihreitä nuolia, niin pääset viereisille kartoille.


METAR-TAF: